createdAt,value
2019-02-26T00:00:17.134Z,6.60
2019-02-26T00:02:48.876Z,5.53
2019-02-26T00:05:19.369Z,6.60
2019-02-26T00:07:49.044Z,6.07
2019-02-26T00:10:16.947Z,7.33
2019-02-26T00:12:46.302Z,6.80
2019-02-26T00:15:14.787Z,6.43
2019-02-26T00:17:45.878Z,7.23
2019-02-26T00:20:17.024Z,6.63
2019-02-26T00:22:43.922Z,6.77
2019-02-26T00:25:12.837Z,7.20
2019-02-26T00:27:42.521Z,6.63
2019-02-26T00:30:14.334Z,6.80
2019-02-26T00:32:42.385Z,7.17
2019-02-26T00:35:10.916Z,7.10
2019-02-26T00:37:39.332Z,6.80
2019-02-26T00:40:14.430Z,7.27
2019-02-26T00:42:42.380Z,7.20
2019-02-26T00:45:13.119Z,5.87
2019-02-26T00:47:43.352Z,6.10
2019-02-26T00:50:16.679Z,7.20
2019-02-26T00:52:45.276Z,6.33
2019-02-26T00:55:13.715Z,6.23
2019-02-26T00:57:43.004Z,6.63
2019-02-26T01:00:16.313Z,7.20
2019-02-26T01:02:44.878Z,6.50
2019-02-26T01:05:15.798Z,7.77
2019-02-26T01:07:46.727Z,6.33
2019-02-26T01:10:16.463Z,6.40
2019-02-26T01:12:45.360Z,7.40
2019-02-26T01:15:20.753Z,6.13
2019-02-26T01:17:49.208Z,6.90
2019-02-26T01:20:19.634Z,7.23
2019-02-26T01:22:48.957Z,6.20
2019-02-26T01:25:18.531Z,6.53
2019-02-26T01:27:51.107Z,6.50
2019-02-26T01:30:23.513Z,7.60
2019-02-26T01:32:48.816Z,7.37
2019-02-26T01:35:17.247Z,6.60
2019-02-26T01:37:45.677Z,6.53
2019-02-26T01:40:18.284Z,6.30
2019-02-26T01:42:49.839Z,6.30
2019-02-26T01:45:15.163Z,10.63
2019-02-26T01:47:46.269Z,8.70
2019-02-26T01:50:16.161Z,8.30
2019-02-26T01:52:44.389Z,7.67
2019-02-26T01:55:13.358Z,7.90
2019-02-26T01:57:43.418Z,5.77
2019-02-26T02:00:14.572Z,7.17
2019-02-26T02:02:42.983Z,7.43
2019-02-26T02:05:11.565Z,8.53
2019-02-26T02:07:39.989Z,6.40
2019-02-26T02:10:11.097Z,5.90
2019-02-26T02:12:41.389Z,6.53
2019-02-26T02:15:12.411Z,7.40
2019-02-26T02:17:41.939Z,12.40
2019-02-26T02:20:16.480Z,9.63
2019-02-26T02:22:45.127Z,7.40
2019-02-26T02:25:13.972Z,6.63
2019-02-26T02:27:47.548Z,5.83
2019-02-26T02:30:27.215Z,7.43
2019-02-26T02:32:56.410Z,9.40
2019-02-26T02:35:23.081Z,7.53
2019-02-26T02:38:06.524Z,8.00
2019-02-26T02:40:39.860Z,5.90
2019-02-26T02:43:07.951Z,7.30
2019-02-26T02:45:37.548Z,5.87
2019-02-26T02:48:07.077Z,6.63
2019-02-26T02:50:36.194Z,6.72
2019-02-26T02:53:04.794Z,6.90
2019-02-26T02:55:33.190Z,6.63
2019-02-26T02:58:01.605Z,7.93
2019-02-26T03:00:32.157Z,7.10
2019-02-26T03:03:00.201Z,7.23
2019-02-26T03:05:31.335Z,7.23
2019-02-26T03:07:59.396Z,7.00
2019-02-26T03:10:36.570Z,7.10
2019-02-26T03:13:04.321Z,6.80
2019-02-26T03:15:35.673Z,6.70
2019-02-26T03:18:04.150Z,6.67
2019-02-26T03:20:40.258Z,7.43
2019-02-26T03:23:09.877Z,6.53
2019-02-26T03:25:37.920Z,6.50
2019-02-26T03:28:06.328Z,6.30
2019-02-26T03:30:44.763Z,7.67
2019-02-26T03:33:16.460Z,6.50
2019-02-26T03:36:08.113Z,6.60
2019-02-26T03:41:45.807Z,12.60
2019-02-26T03:44:15.514Z,9.23
2019-02-26T03:46:44.101Z,8.37
2019-02-26T03:49:12.730Z,7.33
2019-02-26T03:51:41.351Z,6.93
2019-02-26T03:54:09.897Z,7.40
2019-02-26T03:56:38.282Z,6.23
2019-02-26T03:59:08.813Z,6.33
2019-02-26T04:01:36.980Z,6.90
2019-02-26T04:04:07.646Z,7.10
2019-02-26T04:06:36.608Z,6.17
2019-02-26T04:09:08.529Z,6.03
2019-02-26T04:11:36.867Z,6.30
2019-02-26T04:14:05.359Z,7.80
2019-02-26T04:16:35.294Z,7.40
2019-02-26T04:19:05.889Z,7.95
2019-02-26T04:22:12.491Z,7.40
2019-02-26T04:24:40.581Z,7.50
2019-02-26T04:27:39.321Z,7.03
2019-02-26T04:30:27.113Z,6.80
2019-02-26T04:33:03.640Z,6.37
2019-02-26T04:35:34.708Z,6.33
2019-02-26T04:38:11.847Z,6.55
2019-02-26T04:40:46.344Z,7.67
2019-02-26T04:43:36.141Z,9.70
2019-02-26T04:46:30.995Z,7.63
2019-02-26T04:48:58.484Z,7.83
2019-02-26T04:51:26.944Z,8.20
2019-02-26T04:53:56.207Z,13.50
2019-02-26T04:56:25.630Z,10.67
2019-02-26T04:58:54.969Z,8.13
2019-02-26T05:01:23.561Z,6.90
2019-02-26T05:03:52.064Z,7.27
2019-02-26T05:06:20.469Z,7.50
2019-02-26T05:08:48.908Z,7.23
2019-02-26T05:11:30.875Z,8.00
2019-02-26T05:13:47.494Z,6.70
2019-02-26T05:16:15.913Z,7.77
2019-02-26T05:18:47.027Z,8.77
2019-02-26T05:21:14.660Z,6.53
2019-02-26T05:23:43.063Z,7.37
2019-02-26T05:26:14.480Z,9.00
2019-02-26T05:28:43.620Z,7.70
2019-02-26T05:31:14.415Z,8.27
2019-02-26T05:33:41.993Z,7.90
2019-02-26T05:36:12.137Z,9.00
2019-02-26T05:38:40.680Z,8.17
2019-02-26T05:41:09.135Z,8.83
2019-02-26T05:43:37.551Z,8.77
2019-02-26T05:46:06.005Z,8.30
2019-02-26T05:48:34.468Z,8.10
2019-02-26T05:51:05.127Z,9.67
2019-02-26T05:53:33.079Z,7.97
2019-02-26T05:56:01.493Z,8.30
2019-02-26T05:58:29.934Z,7.67
2019-02-26T06:00:58.345Z,8.70
2019-02-26T06:03:27.080Z,7.50
2019-02-26T06:05:57.802Z,7.87
2019-02-26T06:08:29.139Z,7.53
2019-02-26T06:10:55.913Z,8.73
2019-02-26T06:13:24.336Z,7.77
2019-02-26T06:15:55.163Z,8.50
2019-02-26T06:18:22.898Z,9.57
2019-02-26T06:20:53.401Z,8.03
2019-02-26T06:23:23.225Z,8.87
2019-02-26T06:25:55.235Z,8.73
2019-02-26T06:28:22.197Z,8.77
2019-02-26T06:30:50.644Z,9.03
2019-02-26T06:33:19.110Z,8.98
2019-02-26T06:35:49.528Z,9.47
2019-02-26T06:38:23.387Z,8.07
2019-02-26T06:40:49.041Z,8.20
2019-02-26T06:43:18.400Z,7.90
2019-02-26T06:45:51.032Z,9.53
2019-02-26T06:48:24.448Z,8.90
2019-02-26T06:50:50.941Z,7.43
2019-02-26T06:53:21.519Z,8.67
2019-02-26T06:55:51.335Z,8.30
2019-02-26T06:58:27.243Z,8.70
2019-02-26T07:00:59.344Z,10.13
2019-02-26T07:03:29.330Z,8.83
2019-02-26T07:06:01.747Z,8.30
2019-02-26T07:08:30.575Z,9.10
2019-02-26T07:11:00.721Z,8.73
2019-02-26T07:13:29.223Z,9.30
2019-02-26T07:15:58.054Z,8.40
2019-02-26T07:18:29.483Z,8.70
2019-02-26T07:21:00.878Z,8.07
2019-02-26T07:23:32.610Z,7.57
2019-02-26T07:26:00.411Z,10.20
2019-02-26T07:28:29.552Z,8.50
2019-02-26T07:31:00.469Z,8.30
2019-02-26T07:33:31.824Z,8.80
2019-02-26T07:36:01.795Z,8.13
2019-02-26T07:38:40.587Z,8.45
2019-02-26T07:41:04.182Z,8.10
2019-02-26T07:43:38.782Z,8.18
2019-02-26T07:46:12.147Z,7.80
2019-02-26T07:48:46.121Z,8.10
2019-02-26T07:51:19.542Z,7.63
2019-02-26T07:53:54.272Z,8.10
2019-02-26T07:56:18.139Z,7.53
2019-02-26T07:58:49.253Z,8.13
2019-02-26T08:01:20.347Z,7.57
2019-02-26T08:03:49.341Z,8.00
2019-02-26T08:06:18.959Z,9.10
2019-02-26T08:08:49.438Z,7.83
2019-02-26T08:11:23.561Z,8.03
2019-02-26T08:13:59.254Z,7.40
2019-02-26T08:16:30.110Z,9.60
2019-02-26T08:19:01.326Z,8.83
2019-02-26T08:21:29.741Z,8.27
2019-02-26T08:23:58.488Z,8.03
2019-02-26T08:26:30.866Z,9.07
2019-02-26T08:29:02.610Z,8.33
2019-02-26T08:31:31.122Z,9.80
2019-02-26T08:33:59.558Z,8.93
2019-02-26T08:36:31.928Z,8.47
2019-02-26T08:39:07.883Z,9.00
2019-02-26T08:41:38.861Z,11.87
2019-02-26T08:44:07.350Z,9.90
2019-02-26T08:46:37.401Z,9.47
2019-02-26T08:49:08.670Z,9.65
2019-02-26T08:51:40.978Z,8.90
2019-02-26T08:54:20.884Z,11.40
2019-02-26T08:56:47.938Z,11.73
2019-02-26T08:59:17.775Z,10.57
2019-02-26T09:01:46.517Z,11.20
2019-02-26T09:04:21.059Z,10.30
2019-02-26T09:06:52.458Z,10.53
2019-02-26T09:09:25.918Z,9.70
2019-02-26T09:12:00.621Z,8.35
2019-02-26T09:14:37.300Z,8.47
2019-02-26T09:17:06.511Z,9.67
2019-02-26T09:19:36.025Z,9.67
2019-02-26T09:22:05.177Z,9.40
2019-02-26T09:24:34.697Z,13.20
2019-02-26T09:27:07.298Z,8.77
2019-02-26T09:29:36.746Z,9.27
2019-02-26T09:32:07.375Z,8.27
2019-02-26T09:34:39.265Z,9.87
2019-02-26T09:37:08.653Z,9.83
2019-02-26T09:39:38.945Z,10.07
2019-02-26T09:42:09.010Z,9.00
2019-02-26T09:44:37.392Z,10.17
2019-02-26T09:47:07.880Z,9.30
2019-02-26T09:49:36.602Z,9.90
2019-02-26T09:52:06.478Z,9.50
2019-02-26T09:54:40.292Z,9.40
2019-02-26T09:57:10.409Z,10.13
2019-02-26T09:59:38.836Z,8.13
2019-02-26T10:02:07.252Z,8.00
2019-02-26T10:04:38.305Z,8.90
2019-02-26T10:07:09.839Z,8.90
2019-02-26T10:09:40.757Z,12.30
2019-02-26T10:12:12.298Z,9.17
2019-02-26T10:14:39.745Z,8.23
2019-02-26T10:17:12.247Z,8.83
2019-02-26T10:19:42.879Z,8.27
2019-02-26T10:22:13.658Z,8.68
2019-02-26T10:24:41.409Z,9.30
2019-02-26T10:27:14.036Z,7.93
2019-02-26T10:29:45.088Z,9.90
2019-02-26T10:32:12.407Z,9.67
2019-02-26T10:34:41.737Z,8.40
2019-02-26T10:37:14.014Z,7.63
2019-02-26T10:39:44.364Z,8.60
2019-02-26T10:42:12.606Z,9.00
2019-02-26T10:44:44.061Z,7.30
2019-02-26T10:47:15.714Z,8.73
2019-02-26T10:49:45.028Z,8.53
2019-02-26T10:52:16.936Z,9.33
2019-02-26T10:54:46.612Z,10.13
2019-02-26T10:57:18.655Z,8.63
2019-02-26T10:59:49.762Z,9.77
2019-02-26T11:02:20.654Z,8.90
2019-02-26T11:04:50.410Z,9.10
2019-02-26T11:07:19.756Z,8.80
2019-02-26T11:09:51.090Z,8.93
2019-02-26T11:12:20.609Z,9.30
2019-02-26T11:14:48.858Z,10.40
2019-02-26T11:17:23.652Z,10.03
2019-02-26T11:19:55.535Z,9.23
2019-02-26T11:22:28.028Z,10.20
2019-02-26T11:25:02.065Z,9.57
2019-02-26T11:27:37.772Z,10.90
2019-02-26T11:30:14.510Z,10.60
2019-02-26T11:32:44.692Z,11.07
2019-02-26T11:35:20.397Z,10.27
2019-02-26T11:37:52.256Z,11.77
2019-02-26T11:40:28.096Z,13.00
2019-02-26T11:43:10.928Z,12.63
2019-02-26T11:45:37.193Z,12.47
2019-02-26T11:48:08.869Z,12.80
2019-02-26T11:50:44.523Z,12.70
2019-02-26T11:53:14.344Z,9.80
2019-02-26T11:55:43.153Z,12.00
2019-02-26T11:58:15.406Z,12.23
2019-02-26T12:00:50.232Z,12.73
2019-02-26T12:03:22.660Z,10.80
2019-02-26T12:05:54.177Z,11.68
2019-02-26T12:08:26.676Z,11.50
2019-02-26T12:11:01.467Z,11.30
2019-02-26T12:13:29.711Z,10.77
2019-02-26T12:15:57.958Z,11.30
2019-02-26T12:18:29.164Z,10.57
2019-02-26T12:21:00.226Z,11.30
2019-02-26T12:23:34.921Z,14.70
2019-02-26T12:26:06.364Z,15.13
2019-02-26T12:28:37.650Z,16.23
2019-02-26T12:31:08.029Z,17.23
2019-02-26T12:33:36.302Z,16.63
2019-02-26T12:36:08.020Z,16.30
2019-02-26T12:38:37.635Z,17.10
2019-02-26T12:41:09.002Z,17.47
2019-02-26T12:43:42.589Z,17.33
2019-02-26T12:46:11.458Z,14.40
2019-02-26T12:48:44.302Z,10.73
2019-02-26T12:51:11.014Z,11.47
2019-02-26T12:53:49.007Z,9.73
2019-02-26T12:56:15.522Z,8.10
2019-02-26T12:58:47.970Z,9.07
2019-02-26T13:01:20.163Z,9.57
2019-02-26T13:03:54.641Z,7.13
2019-02-26T13:06:22.771Z,6.40
2019-02-26T13:08:51.163Z,6.80
2019-02-26T13:11:24.926Z,4.13
2019-02-26T13:13:53.799Z,3.30
2019-02-26T13:16:22.291Z,3.37
2019-02-26T13:18:55.399Z,4.47
2019-02-26T13:21:22.126Z,5.30
2019-02-26T13:23:58.379Z,5.10
2019-02-26T13:26:22.919Z,4.00
2019-02-26T13:28:52.935Z,5.53
2019-02-26T13:31:22.962Z,5.27
2019-02-26T13:33:57.275Z,5.40
2019-02-26T13:36:27.827Z,5.70
2019-02-26T13:38:56.559Z,5.50
2019-02-26T13:41:29.875Z,5.72
2019-02-26T13:43:57.895Z,6.40
2019-02-26T13:46:31.700Z,5.20
2019-02-26T13:49:01.753Z,5.22
2019-02-26T13:51:30.755Z,4.77
2019-02-26T13:53:59.474Z,4.80
2019-02-26T13:56:33.468Z,5.43
2019-02-26T13:59:05.990Z,5.30
2019-02-26T14:01:41.916Z,4.70
2019-02-26T14:04:13.032Z,5.20
2019-02-26T14:06:41.511Z,4.23
2019-02-26T14:09:10.073Z,4.87
2019-02-26T14:11:42.627Z,4.53
2019-02-26T14:14:14.030Z,5.20
2019-02-26T14:16:43.364Z,4.77
2019-02-26T14:19:12.291Z,4.27
2019-02-26T14:21:41.840Z,4.33
2019-02-26T14:24:15.354Z,5.40
2019-02-26T14:26:45.386Z,4.80
2019-02-26T14:29:13.852Z,3.60
2019-02-26T14:31:43.792Z,4.77
2019-02-26T14:34:16.786Z,3.57
2019-02-26T14:36:46.162Z,3.77
2019-02-26T14:39:14.972Z,3.13
2019-02-26T14:41:45.213Z,4.23
2019-02-26T14:44:16.212Z,3.33
2019-02-26T14:46:44.948Z,4.03
2019-02-26T14:49:13.372Z,3.37
2019-02-26T14:51:45.968Z,3.33
2019-02-26T14:54:17.512Z,2.87
2019-02-26T14:56:46.312Z,3.67
2019-02-26T14:59:14.928Z,3.90
2019-02-26T15:01:49.097Z,3.13
2019-02-26T15:04:21.099Z,2.90
2019-02-26T15:06:55.804Z,2.90
2019-02-26T15:09:27.531Z,3.67
2019-02-26T15:12:00.257Z,3.83
2019-02-26T15:14:26.164Z,2.93
2019-02-26T15:16:56.534Z,3.43
2019-02-26T15:19:31.072Z,3.50
2019-02-26T15:22:01.808Z,3.57
2019-02-26T15:24:30.271Z,3.92
2019-02-26T15:26:59.180Z,3.03
2019-02-26T15:29:30.190Z,3.67
2019-02-26T15:32:04.259Z,3.10
2019-02-26T15:34:35.676Z,3.40
2019-02-26T15:37:04.228Z,3.07
2019-02-26T15:39:32.711Z,2.80
2019-02-26T15:42:04.953Z,2.50
2019-02-26T15:44:37.105Z,2.60
2019-02-26T15:47:05.920Z,2.40
2019-02-26T15:49:35.798Z,3.13
2019-02-26T15:52:05.440Z,2.60
2019-02-26T15:54:34.151Z,2.70
2019-02-26T15:57:02.978Z,4.13
2019-02-26T15:59:35.268Z,3.37
2019-02-26T16:02:01.679Z,3.20
2019-02-26T16:04:30.172Z,2.80
2019-02-26T16:06:58.836Z,3.23
2019-02-26T16:09:27.316Z,3.20
2019-02-26T16:11:55.734Z,2.90
2019-02-26T16:14:24.197Z,3.03
2019-02-26T16:16:52.616Z,3.50
2019-02-26T16:19:21.432Z,3.60
2019-02-26T16:21:49.856Z,3.60
2019-02-26T16:24:18.273Z,3.83
2019-02-26T16:26:46.700Z,3.10
2019-02-26T16:29:16.593Z,4.10
2019-02-26T16:31:45.416Z,3.27
2019-02-26T16:34:13.898Z,3.27
2019-02-26T16:36:42.364Z,3.70
2019-02-26T16:39:11.134Z,3.70
2019-02-26T16:41:39.539Z,4.67
2019-02-26T16:44:08.070Z,4.90
2019-02-26T16:46:36.570Z,5.00
2019-02-26T16:49:05.147Z,5.57
2019-02-26T16:51:33.720Z,6.70
2019-02-26T16:54:02.148Z,6.83
2019-02-26T16:56:30.642Z,6.73
2019-02-26T16:58:59.228Z,7.27
2019-02-26T17:01:27.674Z,7.07
2019-02-26T17:03:56.066Z,5.70
2019-02-26T17:06:24.598Z,6.07
2019-02-26T17:08:53.042Z,5.60
2019-02-26T17:11:21.647Z,5.63
2019-02-26T17:13:50.179Z,6.27
2019-02-26T17:16:19.063Z,5.50
2019-02-26T17:18:47.507Z,5.53
2019-02-26T17:21:16.716Z,5.30
2019-02-26T17:23:47.120Z,5.40
2019-02-26T17:26:15.750Z,5.13
2019-02-26T17:28:44.280Z,4.80
2019-02-26T17:31:12.758Z,5.73
2019-02-26T17:33:41.207Z,5.50
2019-02-26T17:36:09.686Z,6.20
2019-02-26T17:38:40.129Z,7.00
2019-02-26T17:41:12.957Z,7.80
2019-02-26T17:43:43.825Z,5.33
2019-02-26T17:46:11.677Z,5.63
2019-02-26T17:48:43.700Z,5.90
2019-02-26T17:51:13.736Z,5.70
2019-02-26T17:53:42.598Z,5.17
2019-02-26T17:56:11.462Z,4.90
2019-02-26T17:58:41.748Z,5.57
2019-02-26T18:01:14.382Z,5.20
2019-02-26T18:03:45.354Z,6.20
2019-02-26T18:06:13.214Z,4.70
2019-02-26T18:08:42.659Z,8.63
2019-02-26T18:11:13.354Z,13.63
2019-02-26T18:13:43.022Z,9.03
2019-02-26T18:16:11.494Z,7.40
2019-02-26T18:18:39.911Z,6.50
2019-02-26T18:21:08.839Z,6.80
2019-02-26T18:23:37.760Z,7.93
2019-02-26T18:26:06.824Z,8.80
2019-02-26T18:28:36.720Z,12.63
2019-02-26T18:31:05.281Z,11.60
2019-02-26T18:33:36.190Z,12.63
2019-02-26T18:36:04.897Z,10.73
2019-02-26T18:38:33.341Z,9.10
2019-02-26T18:41:01.763Z,11.00
2019-02-26T18:43:30.241Z,9.53
2019-02-26T18:46:00.386Z,8.50
2019-02-26T18:48:28.973Z,9.63
2019-02-26T18:51:02.026Z,9.20
2019-02-26T18:53:27.624Z,8.70
2019-02-26T18:55:56.138Z,9.23
2019-02-26T18:58:27.958Z,8.73
2019-02-26T19:00:58.285Z,9.40
2019-02-26T19:03:26.565Z,9.03
2019-02-26T19:05:55.018Z,8.60
2019-02-26T19:08:23.449Z,9.83
2019-02-26T19:10:53.381Z,8.60
2019-02-26T19:13:22.355Z,8.60
2019-02-26T19:15:50.783Z,8.40
2019-02-26T19:18:19.242Z,8.87
2019-02-26T19:20:49.082Z,10.20
2019-02-26T19:23:17.858Z,7.50
2019-02-26T19:25:46.305Z,8.97
2019-02-26T19:28:14.758Z,8.23
2019-02-26T19:30:43.251Z,12.23
2019-02-26T19:33:11.773Z,24.47
2019-02-26T19:35:40.638Z,18.43
2019-02-26T19:38:09.200Z,24.30
2019-02-26T19:40:40.686Z,10.77
2019-02-26T19:43:09.173Z,10.87
2019-02-26T19:45:37.686Z,10.40
2019-02-26T19:48:07.077Z,9.67
2019-02-26T19:50:35.668Z,9.03
2019-02-26T19:53:04.563Z,8.27
2019-02-26T19:55:35.649Z,11.03
2019-02-26T19:58:06.686Z,9.27
2019-02-26T20:00:34.464Z,9.83
2019-02-26T20:03:05.473Z,7.73
2019-02-26T20:05:33.384Z,8.10
2019-02-26T20:08:04.846Z,7.57
2019-02-26T20:10:32.204Z,8.27
2019-02-26T20:13:01.486Z,7.93
2019-02-26T20:15:30.526Z,14.07
2019-02-26T20:17:59.473Z,14.50
2019-02-26T20:20:27.904Z,9.10
2019-02-26T20:22:56.320Z,9.30
2019-02-26T20:25:24.838Z,8.20
2019-02-26T20:27:55.167Z,8.67
2019-02-26T20:30:24.144Z,8.00
2019-02-26T20:32:52.572Z,8.70
2019-02-26T20:35:21.025Z,8.53
2019-02-26T20:37:49.459Z,9.73
2019-02-26T20:40:22.465Z,10.50
2019-02-26T20:42:50.998Z,9.87
2019-02-26T20:45:22.816Z,10.00
2019-02-26T20:47:51.644Z,11.00
2019-02-26T20:50:21.407Z,14.17
2019-02-26T20:52:50.355Z,12.03
2019-02-26T20:55:27.646Z,14.43
2019-02-26T20:57:56.112Z,13.27
2019-02-26T21:00:25.877Z,14.40
2019-02-26T21:02:54.467Z,11.23
2019-02-26T21:05:24.894Z,13.47
2019-02-26T21:07:57.571Z,12.60
2019-02-26T21:10:23.477Z,13.43
2019-02-26T21:12:51.912Z,12.17
2019-02-26T21:15:21.779Z,11.77
2019-02-26T21:17:50.226Z,11.80
2019-02-26T21:20:18.644Z,10.20
2019-02-26T21:22:47.155Z,10.93
2019-02-26T21:25:15.985Z,9.13
2019-02-26T21:27:44.464Z,9.87
2019-02-26T21:30:20.284Z,9.37
2019-02-26T21:32:48.697Z,9.23
2019-02-26T21:35:19.897Z,9.33
2019-02-26T21:37:48.329Z,10.63
2019-02-26T21:40:17.051Z,8.80
2019-02-26T21:42:45.645Z,9.47
2019-02-26T21:45:16.469Z,10.30
2019-02-26T21:47:45.143Z,8.77
2019-02-26T21:50:14.538Z,9.33
2019-02-26T21:52:43.022Z,10.43
2019-02-26T21:55:15.505Z,9.10
2019-02-26T21:57:43.953Z,9.70
2019-02-26T22:00:23.297Z,7.57
2019-02-26T22:02:52.377Z,8.73
2019-02-26T22:05:24.242Z,7.87
2019-02-26T22:07:53.032Z,7.67
2019-02-26T22:10:22.077Z,7.07
2019-02-26T22:12:50.509Z,8.23
2019-02-26T22:15:18.935Z,9.00
2019-02-26T22:17:47.343Z,7.53
2019-02-26T22:20:23.584Z,7.27
2019-02-26T22:22:48.026Z,7.53
2019-02-26T22:25:17.478Z,7.60
2019-02-26T22:27:45.992Z,8.33
2019-02-26T22:30:21.892Z,8.30
2019-02-26T22:32:49.191Z,7.40
2019-02-26T22:35:17.631Z,7.60
2019-02-26T22:37:46.186Z,7.07
2019-02-26T22:40:15.228Z,6.57
2019-02-26T22:42:43.830Z,7.10
2019-02-26T22:45:14.446Z,7.17
2019-02-26T22:47:44.354Z,6.57
2019-02-26T22:50:14.709Z,7.07
2019-02-26T22:52:43.649Z,7.20
2019-02-26T22:55:16.103Z,7.93
2019-02-26T22:57:43.846Z,6.20
2019-02-26T23:00:19.695Z,7.47
2019-02-26T23:02:48.181Z,6.63
2019-02-26T23:05:18.531Z,7.77
2019-02-26T23:07:46.929Z,8.00
2019-02-26T23:10:16.412Z,7.50
2019-02-26T23:12:44.939Z,8.00
2019-02-26T23:15:14.399Z,7.47
2019-02-26T23:17:44.057Z,7.30
2019-02-26T23:20:12.625Z,8.27
2019-02-26T23:22:42.592Z,7.70
2019-02-26T23:25:11.467Z,8.30
2019-02-26T23:27:39.904Z,9.10
2019-02-26T23:30:11.380Z,8.53
2019-02-26T23:32:40.204Z,8.40
2019-02-26T23:35:11.693Z,7.40
2019-02-26T23:37:40.109Z,8.83
2019-02-26T23:40:10.571Z,7.23
2019-02-26T23:42:39.678Z,7.43
2019-02-26T23:45:10.179Z,7.50
2019-02-26T23:47:38.776Z,7.00
2019-02-26T23:50:11.236Z,8.07
2019-02-26T23:52:39.830Z,7.07
2019-02-26T23:55:13.065Z,7.20
2019-02-26T23:57:40.605Z,7.33
